Time;durP1;ratioP1;P1;durP2;ratioP2;P2;SDS_P1;SDS_P2;PMS_P1;PMS_P2;Temp;Humidity;BMP_temperature;BMP_pressure;BME280_temperature;BME280_humidity;BME280_pressure;Samples;Min_cycle;Max_cycle;Signal;HPM_P1;HPM_P2
2021/12/24 00:03:07;;;;;;;43.85;26.05;;;;;;;2.88;86.67;98684.92;2879173;81;21033;-76
2021/12/24 00:07:09;;;;;;;44.63;24.57;;;;;;;2.93;87.08;98676.20;2891311;80;21029;-72
2021/12/24 00:11:11;;;;;;;31.17;22.73;;;;;;;2.94;87.40;98670.00;2904877;81;21018;-73
2021/12/24 00:19:36;;;;;;;33.88;24.27;;;;;;;3.04;87.61;98662.75;2902556;80;21046;-75
2021/12/24 00:36:20;;;;;;;29.23;21.77;;;;;;;3.26;87.33;98652.24;2903960;82;20986;-74
2021/12/24 00:40:25;;;;;;;29.25;23.12;;;;;;;3.35;87.11;98648.56;2904582;81;20971;-73
2021/12/24 00:44:31;;;;;;;34.00;21.10;;;;;;;3.43;87.05;98642.21;2903337;81;21071;-74
2021/12/24 00:48:36;;;;;;;27.00;19.82;;;;;;;3.49;86.87;98631.20;2903195;82;21373;-74
2021/12/24 00:56:49;;;;;;;43.10;27.82;;;;;;;3.65;86.64;98623.41;2900309;82;21054;-73
2021/12/24 01:00:54;;;;;;;45.33;30.60;;;;;;;3.68;86.82;98611.33;2904451;82;21039;-73
2021/12/24 01:05:01;;;;;;;38.28;25.35;;;;;;;3.74;86.79;98601.66;2903964;81;21067;-73
2021/12/24 01:09:04;;;;;;;25.65;17.65;;;;;;;3.77;87.20;98597.45;2896318;82;21003;-74
2021/12/24 01:13:06;;;;;;;26.17;19.48;;;;;;;3.90;87.52;98599.08;2896302;82;21014;-73
2021/12/24 01:21:37;;;;;;;25.20;16.27;;;;;;;4.18;87.51;98584.99;2883256;81;21002;-76
2021/12/24 01:25:34;;;;;;;21.97;15.15;;;;;;;4.28;88.69;98580.62;2864068;83;21033;-76
2021/12/24 01:29:47;;;;;;;15.18;11.33;;;;;;;4.45;88.69;98583.64;2864402;82;21029;-72
2021/12/24 01:46:12;;;;;;;12.07;8.70;;;;;;;4.85;89.27;98556.56;2863824;83;21046;-76
2021/12/24 01:50:15;;;;;;;12.82;10.85;;;;;;;4.78;90.37;98563.33;2863545;83;21006;-75
2021/12/24 01:54:18;;;;;;;11.40;8.48;;;;;;;4.89;90.18;98561.91;2868270;81;21002;-75
2021/12/24 01:58:30;;;;;;;9.60;7.62;;;;;;;4.95;90.55;98555.28;2910459;81;21014;-77
2021/12/24 02:02:32;;;;;;;9.95;8.25;;;;;;;5.04;90.57;98543.11;2914195;81;21276;-74
2021/12/24 02:06:34;;;;;;;9.08;7.30;;;;;;;5.08;91.14;98541.41;2913236;81;21502;-75
2021/12/24 02:10:36;;;;;;;10.72;8.00;;;;;;;5.12;91.63;98530.12;2912969;81;20994;-77
2021/12/24 02:14:40;;;;;;;15.23;11.28;;;;;;;5.22;91.47;98534.92;2912841;81;21546;-77
2021/12/24 02:31:18;;;;;;;20.57;10.23;;;;;;;5.36;91.60;98524.97;2913522;80;21030;-75
2021/12/24 02:35:22;;;;;;;20.65;12.28;;;;;;;5.42;91.52;98513.87;2911884;81;20978;-77
2021/12/24 02:39:23;;;;;;;18.40;10.35;;;;;;;5.40;91.90;98515.81;2913458;81;21033;-77
2021/12/24 02:43:26;;;;;;;16.60;10.35;;;;;;;5.34;92.83;98511.09;2913780;81;21495;-77
2021/12/24 02:55:56;;;;;;;14.50;10.48;;;;;;;5.35;93.22;98512.76;2911607;81;21073;-76
2021/12/24 03:00:01;;;;;;;12.85;11.38;;;;;;;5.36;93.79;98507.83;2910938;81;21030;-75
2021/12/24 03:04:05;;;;;;;12.63;10.60;;;;;;;5.45;93.51;98500.91;2879048;81;21014;-76
2021/12/24 03:08:08;;;;;;;15.00;11.00;;;;;;;5.49;93.17;98503.11;2860643;82;21038;-76
2021/12/24 03:12:13;;;;;;;11.18;9.13;;;;;;;5.30;94.82;98502.61;2860185;83;21039;-75
2021/12/24 03:16:19;;;;;;;11.70;9.87;;;;;;;5.26;95.50;98501.22;2860326;82;21049;-77
2021/12/24 03:20:23;;;;;;;11.97;9.28;;;;;;;5.27;95.30;98493.66;2859849;81;21313;-77
2021/12/24 03:28:27;;;;;;;13.43;9.63;;;;;;;5.27;96.04;98490.52;2859469;83;21045;-74
2021/12/24 03:32:28;;;;;;;12.05;9.78;;;;;;;5.33;95.87;98479.92;2859803;83;21010;-75
2021/12/24 03:36:34;;;;;;;10.63;8.55;;;;;;;5.39;95.79;98479.86;2859773;83;21069;-75
2021/12/24 03:40:39;;;;;;;11.57;9.75;;;;;;;5.43;95.08;98482.57;2860200;83;21072;-77
2021/12/24 03:44:45;;;;;;;13.22;10.10;;;;;;;5.34;96.52;98486.05;2891207;81;21018;-75
2021/12/24 03:48:58;;;;;;;13.05;11.15;;;;;;;5.45;96.91;98480.62;2909943;81;21069;-77
2021/12/24 03:53:04;;;;;;;12.20;10.98;;;;;;;5.44;97.29;98478.96;2910424;81;21514;-76
2021/12/24 03:57:04;;;;;;;19.27;10.63;;;;;;;5.53;96.78;98474.66;2912056;81;21022;-76
2021/12/24 04:01:09;;;;;;;11.50;9.35;;;;;;;5.59;96.72;98480.70;2900532;81;21018;-74
2021/12/24 04:05:14;;;;;;;11.90;9.63;;;;;;;5.69;96.25;98474.11;2865708;81;20982;-71
2021/12/24 04:09:19;;;;;;;10.08;8.38;;;;;;;5.71;96.37;98481.42;2865705;83;21002;-73
2021/12/24 04:13:20;;;;;;;10.40;8.88;;;;;;;5.68;96.56;98479.88;2864133;83;21752;-77
2021/12/24 04:17:23;;;;;;;12.37;8.28;;;;;;;5.77;96.39;98472.09;2864289;83;21025;-73
2021/12/24 04:25:42;;;;;;;9.83;7.85;;;;;;;5.81;96.70;98462.95;2910293;82;20995;-76
2021/12/24 04:29:44;;;;;;;10.82;6.90;;;;;;;5.78;96.29;98461.88;2929837;81;21623;-77
2021/12/24 04:33:50;;;;;;;10.32;7.83;;;;;;;5.82;96.19;98465.42;2941491;81;21045;-74
2021/12/24 05:03:29;;;;;;;8.03;5.60;;;;;;;5.76;95.06;98468.64;2935153;80;21050;-77
2021/12/24 05:11:43;;;;;;;4.83;4.42;;;;;;;5.65;96.11;98474.04;2931150;80;21078;-78
2021/12/24 05:15:48;;;;;;;4.95;3.37;;;;;;;5.60;97.17;98463.93;2959720;80;21041;-75
2021/12/24 05:24:14;;;;;;;5.17;3.72;;;;;;;5.90;97.12;98468.69;2862358;83;21069;-78
2021/12/24 05:28:17;;;;;;;5.42;4.58;;;;;;;6.08;96.52;98470.14;2862748;83;21018;-78
2021/12/24 05:32:18;;;;;;;5.80;4.70;;;;;;;6.20;95.59;98467.35;2862186;83;21069;-76
2021/12/24 05:36:22;;;;;;;6.95;4.53;;;;;;;6.33;94.96;98470.52;2861612;83;21041;-81
2021/12/24 05:40:27;;;;;;;8.28;6.45;;;;;;;6.45;94.18;98465.05;2862138;83;21049;-78
2021/12/24 05:44:28;;;;;;;8.80;5.60;;;;;;;6.50;93.66;98458.36;2862714;83;21005;-79
2021/12/24 05:48:33;;;;;;;7.25;5.87;;;;;;;6.60;93.37;98458.33;2869343;81;21366;-67
2021/12/24 05:52:35;;;;;;;8.53;6.33;;;;;;;6.61;93.06;98448.10;2884686;81;21034;-79
2021/12/24 05:56:37;;;;;;;9.68;6.20;;;;;;;6.63;92.93;98446.65;2884460;81;20998;-74
2021/12/24 06:00:40;;;;;;;9.83;6.65;;;;;;;6.64;92.72;98441.70;2903874;81;21030;-79
2021/12/24 06:04:44;;;;;;;7.70;6.00;;;;;;;6.68;92.38;98440.42;2852981;83;21125;-76
2021/12/24 06:08:48;;;;;;;8.23;5.28;;;;;;;6.72;92.31;98440.47;2853821;83;21022;-75
2021/12/24 06:12:50;;;;;;;6.95;4.35;;;;;;;6.74;92.41;98435.05;2908703;81;21653;-73
2021/12/24 06:17:09;;;;;;;4.33;3.47;;;;;;;6.75;92.45;98442.00;2913444;81;21033;-73
2021/12/24 06:21:04;;;;;;;5.28;4.50;;;;;;;6.80;91.90;98445.03;2873998;81;21026;-76
2021/12/24 06:25:08;;;;;;;8.05;5.40;;;;;;;6.86;91.71;98433.86;2863645;82;21101;-69
2021/12/24 06:29:10;;;;;;;5.37;4.35;;;;;;;6.83;91.60;98438.13;2864188;83;21061;-68
2021/12/24 06:33:12;;;;;;;6.00;4.15;;;;;;;6.82;91.57;98445.23;2863871;83;20978;-68
2021/12/24 06:37:17;;;;;;;4.55;4.17;;;;;;;6.80;91.81;98442.39;2864191;82;21561;-74
2021/12/24 06:41:21;;;;;;;5.12;4.53;;;;;;;6.77;91.81;98439.53;2864393;82;21053;-76
2021/12/24 06:45:26;;;;;;;6.05;4.35;;;;;;;6.74;92.21;98437.70;2863434;83;21057;-76
2021/12/24 06:49:33;;;;;;;5.80;5.20;;;;;;;6.74;92.64;98431.91;2863631;83;20994;-70
2021/12/24 06:53:37;;;;;;;3.87;3.15;;;;;;;6.78;92.43;98436.42;2863442;83;21037;-74
2021/12/24 06:57:45;;;;;;;5.20;3.00;;;;;;;6.82;92.60;98439.10;2862762;83;21034;-69
2021/12/24 07:01:49;;;;;;;4.12;2.90;;;;;;;6.82;92.66;98438.63;2863033;82;21105;-77
2021/12/24 07:05:54;;;;;;;6.60;3.02;;;;;;;6.83;92.83;98438.97;2863331;81;21029;-73
2021/12/24 07:09:55;;;;;;;5.65;3.70;;;;;;;6.81;92.97;98436.97;2867838;81;20997;-75
2021/12/24 07:13:57;;;;;;;4.17;3.30;;;;;;;6.84;93.19;98430.06;2861736;83;21096;-79
2021/12/24 07:17:59;;;;;;;4.40;3.62;;;;;;;6.86;93.17;98424.13;2888415;81;21010;-79
2021/12/24 07:22:03;;;;;;;4.83;3.83;;;;;;;6.89;92.89;98416.88;2880151;80;21037;-77
2021/12/24 07:26:08;;;;;;;3.52;2.98;;;;;;;6.86;93.36;98418.84;2862251;83;21033;-75
2021/12/24 07:30:14;;;;;;;2.75;2.02;;;;;;;6.91;93.36;98421.05;2863153;83;21030;-68
2021/12/24 07:34:17;;;;;;;3.05;2.75;;;;;;;6.89;93.86;98416.88;2863482;82;21010;-73
2021/12/24 07:38:20;;;;;;;2.58;2.37;;;;;;;6.90;94.41;98419.39;2863058;83;21044;-76
2021/12/24 07:42:23;;;;;;;2.75;2.37;;;;;;;6.88;95.02;98425.80;2863000;83;21073;-74
2021/12/24 07:46:31;;;;;;;2.33;1.92;;;;;;;6.89;95.38;98430.95;2862512;83;21046;-70
2021/12/24 07:54:32;;;;;;;2.58;2.35;;;;;;;6.93;96.11;98399.27;2779929;85;21011;-78
2021/12/24 07:58:34;;;;;;;3.22;2.27;;;;;;;6.97;96.46;98404.59;2805219;85;21042;-78
2021/12/24 08:02:36;;;;;;;3.30;2.27;;;;;;;7.03;96.33;98401.84;2779620;85;21532;-75
2021/12/24 08:06:38;;;;;;;2.20;1.98;;;;;;;7.07;96.46;98391.30;2803979;85;21010;-76
2021/12/24 08:10:41;;;;;;;2.50;1.70;;;;;;;7.17;96.48;98393.87;2779298;85;21110;-73
2021/12/24 08:14:43;;;;;;;2.08;1.87;;;;;;;7.25;95.97;98386.52;2804826;85;21553;-76
2021/12/24 08:18:45;;;;;;;2.67;1.98;;;;;;;7.32;96.10;98384.92;2786317;83;21020;-70
2021/12/24 08:22:49;;;;;;;1.75;1.55;;;;;;;7.40;96.20;98372.26;2850020;83;21097;-76
2021/12/24 08:26:51;;;;;;;4.75;2.17;;;;;;;7.47;95.93;98360.58;2850813;83;21030;-70
2021/12/24 08:30:56;;;;;;;7.33;1.72;;;;;;;7.51;96.08;98365.42;2918572;81;21021;-70
2021/12/24 08:35:01;;;;;;;2.65;1.85;;;;;;;7.55;96.27;98374.70;2926239;80;21065;-73
2021/12/24 08:39:06;;;;;;;1.87;1.15;;;;;;;7.57;96.32;98368.77;2925935;81;21049;-74
2021/12/24 08:43:11;;;;;;;2.83;1.35;;;;;;;7.64;96.29;98364.17;2926118;81;21029;-71
2021/12/24 08:47:16;;;;;;;2.67;1.62;;;;;;;7.67;96.30;98367.86;2926230;81;21041;-78
2021/12/24 08:51:18;;;;;;;1.52;1.15;;;;;;;7.67;96.44;98367.86;2925814;81;20974;-75
2021/12/24 08:55:22;;;;;;;2.27;1.32;;;;;;;7.68;96.64;98361.07;2924812;80;21318;-75
2021/12/24 08:59:24;;;;;;;1.25;1.07;;;;;;;7.72;97.02;98378.30;2924632;80;21033;-75
2021/12/24 09:03:26;;;;;;;1.47;1.30;;;;;;;7.75;97.09;98372.35;2922923;80;21001;-75
2021/12/24 09:07:31;;;;;;;1.60;1.12;;;;;;;7.79;97.10;98371.89;2924088;81;21084;-77
2021/12/24 09:11:35;;;;;;;3.95;0.93;;;;;;;7.81;97.62;98369.92;2899572;80;20955;-73
2021/12/24 09:15:40;;;;;;;1.95;1.77;;;;;;;7.84;97.92;98364.82;2880333;82;21073;-74
2021/12/24 09:19:49;;;;;;;2.83;1.40;;;;;;;7.93;97.81;98367.03;2875100;80;21037;-76
2021/12/24 09:23:50;;;;;;;2.47;2.10;;;;;;;7.97;97.71;98359.95;2906545;82;21618;-73
2021/12/24 09:27:52;;;;;;;2.02;1.90;;;;;;;8.04;98.16;98360.63;2803328;83;21039;-69
2021/12/24 09:31:55;;;;;;;2.22;1.27;;;;;;;8.12;98.58;98345.63;2809303;83;20971;-73
2021/12/24 09:35:57;;;;;;;3.20;0.98;;;;;;;8.15;98.18;98345.78;2830734;83;20995;-67
2021/12/24 09:40:02;;;;;;;1.77;1.27;;;;;;;8.22;98.31;98336.23;2825312;84;21037;-69
2021/12/24 09:44:06;;;;;;;1.20;1.00;;;;;;;8.22;98.56;98330.09;2904672;80;21323;-75
2021/12/24 09:48:08;;;;;;;1.77;1.27;;;;;;;8.23;98.76;98328.62;2849678;83;21022;-67
2021/12/24 09:52:10;;;;;;;2.52;1.82;;;;;;;8.28;98.87;98329.48;2824107;84;21002;-71
2021/12/24 09:56:12;;;;;;;2.58;2.37;;;;;;;8.36;98.94;98318.09;2909162;82;21053;-69
2021/12/24 10:00:19;;;;;;;9.38;2.75;;;;;;;8.39;98.78;98311.14;2909091;82;21073;-75
2021/12/24 10:04:26;;;;;;;2.55;1.87;;;;;;;8.48;99.46;98306.70;2909310;81;21006;-71
2021/12/24 10:08:30;;;;;;;4.05;2.40;;;;;;;8.57;99.68;98303.09;2814591;83;20999;-72
2021/12/24 10:12:31;;;;;;;3.58;3.27;;;;;;;8.68;99.24;98305.45;2782936;84;21070;-69
2021/12/24 10:16:35;;;;;;;5.47;3.27;;;;;;;8.70;98.86;98304.80;2777504;85;21033;-72
2021/12/24 10:20:36;;;;;;;4.47;3.08;;;;;;;8.79;99.08;98299.02;2856813;82;21034;-73
2021/12/24 10:24:38;;;;;;;2.42;2.02;;;;;;;8.85;99.50;98290.39;2942950;80;21046;-76
2021/12/24 10:28:49;;;;;;;1.60;1.40;;;;;;;9.03;99.30;98285.92;2931996;80;21346;-76
2021/12/24 10:32:55;;;;;;;3.65;1.75;;;;;;;9.17;99.48;98282.62;2941571;80;20991;-76
2021/12/24 10:37:23;;;;;;;2.40;1.50;;;;;;;9.37;99.52;98290.23;2960416;80;20995;-77
2021/12/24 10:41:25;;;;;;;4.12;1.45;;;;;;;9.51;98.16;98280.28;2958132;80;21443;-69
2021/12/24 10:45:26;;;;;;;1.47;1.30;;;;;;;9.59;97.36;98275.45;2953422;80;21095;-75
2021/12/24 10:49:53;;;;;;;5.62;1.85;;;;;;;9.61;96.67;98259.34;2956623;80;21316;-73
2021/12/24 10:54:06;;;;;;;3.90;2.62;;;;;;;9.60;96.42;98248.39;2953642;80;21363;-75
2021/12/24 10:58:16;;;;;;;4.10;2.50;;;;;;;9.65;96.32;98246.08;2956417;80;21090;-70
2021/12/24 11:02:19;;;;;;;3.65;2.05;;;;;;;9.81;97.23;98247.85;2955606;80;21003;-70
2021/12/24 11:06:22;;;;;;;1.70;1.22;;;;;;;10.05;97.02;98243.44;2957471;80;21025;-70
2021/12/24 11:10:27;;;;;;;2.75;1.55;;;;;;;10.37;96.53;98251.75;2955315;80;21026;-70
2021/12/24 11:14:31;;;;;;;2.02;1.12;;;;;;;10.45;94.53;98248.77;2904744;82;21022;-75
2021/12/24 11:18:39;;;;;;;1.98;1.72;;;;;;;10.54;94.08;98237.07;2904982;82;21094;-72
2021/12/24 11:23:09;;;;;;;1.65;1.37;;;;;;;10.56;93.32;98236.39;2868173;81;21046;-73
2021/12/24 11:27:11;;;;;;;2.10;1.55;;;;;;;10.67;92.44;98225.36;2867705;81;20990;-75
2021/12/24 11:31:20;;;;;;;1.30;1.20;;;;;;;10.68;91.75;98217.70;2905560;81;21048;-74
2021/12/24 11:35:23;;;;;;;3.02;1.40;;;;;;;10.65;91.30;98218.06;2891618;81;21513;-69
2021/12/24 11:39:25;;;;;;;2.87;2.20;;;;;;;10.59;91.08;98210.77;2894379;81;20939;-73
2021/12/24 11:43:30;;;;;;;3.45;1.75;;;;;;;10.42;91.38;98196.29;2908089;81;20983;-75
2021/12/24 11:47:33;;;;;;;2.33;1.50;;;;;;;10.35;92.08;98210.42;2901703;81;21058;-70
2021/12/24 11:51:41;;;;;;;2.05;1.85;;;;;;;10.28;92.19;98200.99;2884886;81;21386;-76
2021/12/24 11:55:50;;;;;;;4.85;2.25;;;;;;;10.34;92.12;98206.11;2894231;81;20967;-72
2021/12/24 11:59:52;;;;;;;1.75;1.47;;;;;;;10.37;91.63;98200.44;2886469;81;21006;-74
2021/12/24 12:03:57;;;;;;;4.42;2.42;;;;;;;10.43;91.45;98203.27;2891735;81;21014;-69
2021/12/24 12:08:27;;;;;;;3.95;2.33;;;;;;;10.42;91.93;98193.63;2910353;81;21057;-70
2021/12/24 12:12:35;;;;;;;5.17;2.20;;;;;;;10.52;91.66;98190.74;2895745;81;21073;-69
2021/12/24 12:16:44;;;;;;;2.30;2.10;;;;;;;10.70;90.91;98191.76;2907144;81;20982;-72
2021/12/24 12:20:50;;;;;;;1.60;1.50;;;;;;;10.76;90.03;98177.42;2907668;79;21473;-74
2021/12/24 12:25:06;;;;;;;2.65;1.62;;;;;;;10.90;88.97;98181.95;2906452;81;21065;-72
2021/12/24 12:29:32;;;;;;;3.17;1.50;;;;;;;10.93;88.42;98172.80;2898148;80;21073;-73
2021/12/24 12:33:38;;;;;;;3.08;2.30;;;;;;;10.99;87.94;98169.41;2883516;81;21050;-72
2021/12/24 12:37:53;;;;;;;4.17;2.72;;;;;;;10.97;87.23;98164.27;2890789;81;21053;-75
2021/12/24 12:41:56;;;;;;;2.70;2.22;;;;;;;10.85;87.01;98161.73;2871218;81;21358;-74
2021/12/24 12:46:02;;;;;;;2.67;1.80;;;;;;;10.74;87.63;98162.14;2856914;83;20994;-76
2021/12/24 12:50:15;;;;;;;3.02;1.52;;;;;;;10.62;87.91;98178.55;2829811;83;21015;-78
2021/12/24 12:54:39;;;;;;;2.50;2.30;;;;;;;10.61;87.98;98176.05;2818409;84;21077;-71
2021/12/24 12:58:45;;;;;;;4.35;2.50;;;;;;;10.49;87.84;98163.16;2811340;83;21407;-77
2021/12/24 13:03:06;;;;;;;;;;;;;;;10.45;88.04;98159.73;2778127;84;21069;-76
2021/12/24 13:07:06;;;;;;;3.55;2.42;;;;;;;10.46;88.02;98176.81;2812685;84;20128;-74
2021/12/24 13:11:13;;;;;;;3.70;2.62;;;;;;;10.40;88.13;98182.33;2845626;83;21039;-70
2021/12/24 13:15:20;;;;;;;4.00;3.05;;;;;;;10.41;88.14;98173.34;2819577;83;21070;-69
2021/12/24 13:19:26;;;;;;;6.72;3.02;;;;;;;10.46;87.85;98183.97;2838887;82;21078;-70
2021/12/24 13:23:23;;;;;;;3.53;2.53;;;;;;;10.43;87.58;98183.81;2838384;82;21049;-71
2021/12/24 13:27:30;;;;;;;5.20;2.77;;;;;;;10.40;87.48;98167.70;2890273;81;21098;-72
2021/12/24 13:31:32;;;;;;;3.10;2.85;;;;;;;10.42;87.18;98186.14;2878943;81;21065;-72
2021/12/24 13:35:45;;;;;;;3.85;2.72;;;;;;;10.41;86.97;98183.98;2875339;82;21029;-72
2021/12/24 13:39:51;;;;;;;4.22;3.05;;;;;;;10.40;86.98;98188.97;2900368;81;21050;-74
2021/12/24 13:43:53;;;;;;;5.47;3.25;;;;;;;10.35;87.08;98188.64;2859641;81;21030;-74
2021/12/24 13:48:02;;;;;;;4.87;3.27;;;;;;;10.32;86.35;98181.03;2881967;81;21029;-73
2021/12/24 13:56:21;;;;;;;5.65;2.98;;;;;;;10.30;85.93;98197.66;2834311;83;21561;-70
2021/12/24 14:00:24;;;;;;;5.70;3.72;;;;;;;10.28;85.65;98189.84;2878853;82;20982;-69
2021/12/24 14:04:26;;;;;;;5.90;3.10;;;;;;;10.35;85.37;98181.19;2864250;81;20990;-72
2021/12/24 14:08:34;;;;;;;3.10;2.62;;;;;;;10.32;84.84;98181.52;2842694;83;21054;-72
2021/12/24 14:12:38;;;;;;;5.37;2.27;;;;;;;10.36;84.34;98177.53;2841919;82;21735;-69
2021/12/24 14:25:12;;;;;;;5.55;3.30;;;;;;;10.33;84.01;98184.01;2793664;83;21070;-77
2021/12/24 14:29:30;;;;;;;4.55;3.65;;;;;;;10.28;83.70;98181.88;2791794;83;20986;-71
2021/12/24 14:33:36;;;;;;;4.90;3.15;;;;;;;10.29;83.72;98181.38;2798239;84;21057;-76
2021/12/24 14:37:37;;;;;;;5.72;3.47;;;;;;;10.31;83.42;98169.23;2882416;80;21057;-68
2021/12/24 14:41:39;;;;;;;3.72;2.98;;;;;;;10.37;82.58;98173.87;2891867;82;21029;-71
2021/12/24 14:45:44;;;;;;;4.12;2.92;;;;;;;10.34;82.40;98179.02;2834157;83;21058;-71
2021/12/24 14:49:46;;;;;;;2.92;2.25;;;;;;;10.31;82.17;98168.75;2778421;84;21026;-70
2021/12/24 14:53:51;;;;;;;3.27;2.98;;;;;;;10.28;82.17;98172.57;2801303;85;21042;-70
2021/12/24 14:57:58;;;;;;;3.65;2.52;;;;;;;10.34;82.24;98176.88;2777144;85;21089;-71
2021/12/24 15:02:00;;;;;;;9.38;3.05;;;;;;;10.24;82.12;98169.95;2801083;84;21026;-72
2021/12/24 15:06:17;;;;;;;4.30;2.65;;;;;;;10.23;81.80;98152.88;2776535;85;21093;-71
2021/12/24 15:10:19;;;;;;;6.45;3.02;;;;;;;10.25;81.92;98170.79;2800483;84;21082;-72
2021/12/24 15:14:26;;;;;;;5.17;3.37;;;;;;;10.21;81.72;98172.96;2776941;85;21042;-72
2021/12/24 15:18:25;;;;;;;6.95;2.90;;;;;;;10.24;81.22;98146.55;2800531;85;21047;-72
2021/12/24 15:22:27;;;;;;;8.38;3.87;;;;;;;10.19;81.00;98156.86;2812085;82;21073;-73
2021/12/24 15:26:30;;;;;;;8.78;5.17;;;;;;;10.21;81.02;98177.44;2854622;83;21042;-72
2021/12/24 15:30:31;;;;;;;5.22;2.10;;;;;;;10.19;81.08;98159.52;2854613;83;21041;-71
2021/12/24 15:34:33;;;;;;;5.72;3.00;;;;;;;10.21;81.12;98158.34;2854364;83;20995;-74
2021/12/24 15:38:35;;;;;;;6.00;2.77;;;;;;;10.22;81.34;98176.43;2854607;83;21057;-74
2021/12/24 15:42:37;;;;;;;6.97;3.85;;;;;;;10.21;81.35;98170.79;2855066;83;20998;-75
2021/12/24 15:46:39;;;;;;;3.17;2.87;;;;;;;10.18;81.87;98195.05;2855161;83;21066;-72
2021/12/24 15:50:41;;;;;;;7.03;4.05;;;;;;;10.02;84.02;98214.06;2854489;83;21050;-72
2021/12/24 15:54:43;;;;;;;4.25;2.10;;;;;;;9.84;85.99;98296.14;2855092;83;20991;-73
2021/12/24 15:58:45;;;;;;;3.17;1.57;;;;;;;9.76;87.99;98293.49;2854419;83;21066;-76
2021/12/24 16:02:46;;;;;;;2.85;2.33;;;;;;;9.31;90.26;98301.53;2855618;83;20939;-73
2021/12/24 16:06:48;;;;;;;2.02;1.07;;;;;;;8.92;91.91;98319.74;2854898;83;21058;-79
2021/12/24 16:10:50;;;;;;;1.62;1.15;;;;;;;8.34;92.96;98335.45;2856297;83;21424;-79
2021/12/24 16:14:52;;;;;;;2.00;1.10;;;;;;;7.74;92.88;98352.16;2856432;83;21018;-77
2021/12/24 16:18:54;;;;;;;2.98;1.35;;;;;;;7.23;94.14;98363.36;2809888;84;21058;-76
2021/12/24 16:22:55;;;;;;;1.55;1.15;;;;;;;6.84;96.18;98375.88;2853538;83;21290;-80
2021/12/24 16:26:57;;;;;;;1.35;0.60;;;;;;;6.52;96.49;98388.23;2850015;83;21031;-79
2021/12/24 16:30:59;;;;;;;1.40;0.95;;;;;;;6.28;96.45;98382.95;2850566;83;21037;-83
2021/12/24 16:35:06;;;;;;;3.45;0.93;;;;;;;6.15;96.91;98388.57;2848840;83;21606;-82
2021/12/24 16:39:08;;;;;;;1.30;0.62;;;;;;;5.96;97.56;98425.07;2848092;83;21089;-80
2021/12/24 16:43:12;;;;;;;0.70;0.70;;;;;;;5.86;98.98;98428.55;2848059;83;20986;-82
2021/12/24 16:47:13;;;;;;;3.00;1.20;;;;;;;5.85;99.59;98440.58;2847785;83;21010;-83
2021/12/24 16:51:16;;;;;;;2.52;1.82;;;;;;;5.77;100.00;98453.63;2848468;83;20967;-82
2021/12/24 16:55:21;;;;;;;4.78;2.33;;;;;;;5.80;100.00;98458.14;2850871;83;20978;-80
2021/12/24 16:59:21;;;;;;;2.35;1.40;;;;;;;5.65;98.06;98465.66;2851366;83;21022;-80
2021/12/24 17:03:23;;;;;;;1.72;1.02;;;;;;;5.46;97.23;98480.97;2850718;83;20939;-81
2021/12/24 17:07:25;;;;;;;1.82;1.05;;;;;;;5.35;97.48;98481.94;2851121;83;21037;-77
2021/12/24 17:11:27;;;;;;;0.90;0.60;;;;;;;5.21;97.51;98483.17;2850375;83;20963;-81
2021/12/24 17:15:29;;;;;;;4.87;1.95;;;;;;;5.07;98.05;98517.80;2850150;83;21045;-80
2021/12/24 17:19:31;;;;;;;2.62;1.57;;;;;;;5.07;98.44;98527.88;2850420;82;21011;-81
2021/12/24 17:23:33;;;;;;;1.50;0.90;;;;;;;4.94;97.57;98530.75;2850093;82;21019;-79
2021/12/24 17:27:35;;;;;;;1.47;0.93;;;;;;;4.76;97.53;98552.91;2910210;81;21023;-77
2021/12/24 17:31:37;;;;;;;1.22;1.12;;;;;;;4.53;96.94;98553.08;2915750;80;20993;-77
2021/12/24 17:35:39;;;;;;;1.00;0.65;;;;;;;4.35;97.62;98570.42;2950410;80;21045;-79
2021/12/24 17:39:41;;;;;;;1.27;1.20;;;;;;;4.09;97.07;98596.61;2950647;80;21044;-79
2021/12/24 17:43:42;;;;;;;1.52;0.88;;;;;;;3.95;96.80;98594.30;2950689;80;20970;-75
2021/12/24 17:47:44;;;;;;;0.88;0.85;;;;;;;3.59;95.93;98623.91;2950004;80;20966;-77
2021/12/24 17:51:46;;;;;;;3.60;1.75;;;;;;;3.53;97.29;98631.31;2950211;80;21346;-79
2021/12/24 17:55:47;;;;;;;1.20;0.93;;;;;;;3.43;96.72;98623.81;2950176;80;21056;-79
2021/12/24 17:59:49;;;;;;;4.42;2.67;;;;;;;3.35;97.21;98637.55;2949650;80;22192;-79
2021/12/24 18:03:50;;;;;;;5.20;2.85;;;;;;;3.33;97.55;98639.93;2949683;80;21052;-78
2021/12/24 18:07:53;;;;;;;4.10;2.92;;;;;;;3.28;97.39;98642.94;2949315;80;21032;-78
2021/12/24 18:11:55;;;;;;;1.70;1.55;;;;;;;3.38;98.23;98649.14;2949436;80;20997;-79
2021/12/24 18:15:57;;;;;;;3.55;1.87;;;;;;;3.42;98.91;98643.98;2949384;80;21038;-77
2021/12/24 18:19:59;;;;;;;5.05;2.45;;;;;;;3.41;99.29;98658.09;2948615;80;21080;-82
2021/12/24 18:24:04;;;;;;;1.92;1.32;;;;;;;3.32;98.61;98689.05;2951430;80;21056;-81
2021/12/24 18:28:06;;;;;;;2.72;1.77;;;;;;;3.40;99.47;98679.25;2953250;80;21546;-83
2021/12/24 18:32:09;;;;;;;2.95;1.77;;;;;;;3.32;99.13;98697.40;2952920;80;21024;-85
2021/12/24 18:36:12;;;;;;;2.85;1.92;;;;;;;3.35;98.52;98680.92;2952246;80;21465;-82
2021/12/24 18:40:14;;;;;;;2.12;1.92;;;;;;;3.29;98.40;98684.03;2951925;80;21105;-81
2021/12/24 18:44:15;;;;;;;3.87;1.57;;;;;;;3.26;98.25;98686.41;2951344;80;21040;-84
2021/12/24 18:48:19;;;;;;;2.98;2.75;;;;;;;3.08;98.09;98687.36;2950667;80;21014;-85
2021/12/24 18:52:20;;;;;;;4.55;2.58;;;;;;;3.11;98.59;98690.21;2950644;80;21048;-88
2021/12/24 18:56:22;;;;;;;3.25;2.22;;;;;;;3.11;99.45;98721.28;2950528;80;21021;-84
2021/12/24 19:00:27;;;;;;;3.45;3.15;;;;;;;3.12;98.90;98722.09;2949912;80;21048;-89
2021/12/24 19:04:29;;;;;;;4.00;2.85;;;;;;;3.04;98.91;98719.23;2950395;80;21064;-90
2021/12/24 19:08:30;;;;;;;4.58;4.10;;;;;;;3.03;99.51;98757.78;2950196;80;21592;-90
2021/12/24 19:12:32;;;;;;;9.43;3.50;;;;;;;3.06;99.63;98761.98;2950151;80;21107;-90
2021/12/24 19:16:34;;;;;;;6.12;3.58;;;;;;;3.03;99.12;98767.47;2950370;80;21079;-84
2021/12/24 19:20:36;;;;;;;6.17;4.20;;;;;;;3.04;99.35;98782.28;2950212;80;21099;-90
2021/12/24 19:24:38;;;;;;;5.72;4.00;;;;;;;3.00;98.92;98809.25;2950516;80;21021;-87
2021/12/24 19:28:40;;;;;;;7.00;3.90;;;;;;;2.99;98.88;98791.35;2951302;80;21075;-86
2021/12/24 19:32:42;;;;;;;6.22;4.42;;;;;;;2.93;98.73;98787.84;2951794;80;20992;-83
2021/12/24 19:36:43;;;;;;;3.67;3.37;;;;;;;2.83;98.20;98796.06;2951183;80;21052;-86
2021/12/24 19:40:45;;;;;;;6.53;4.25;;;;;;;2.76;98.38;98785.66;2951417;80;21008;-83
2021/12/24 19:44:47;;;;;;;4.60;3.90;;;;;;;2.68;98.91;98807.22;2951784;80;21667;-85
2021/12/24 19:48:48;;;;;;;4.78;4.33;;;;;;;2.63;99.84;98810.17;2951835;80;21509;-84
2021/12/24 19:52:51;;;;;;;6.33;4.83;;;;;;;2.71;100.00;98833.25;2951176;80;21612;-81
2021/12/24 19:56:52;;;;;;;6.08;5.10;;;;;;;2.78;100.00;98829.70;2952449;80;21009;-83
2021/12/24 20:00:54;;;;;;;5.87;3.42;;;;;;;2.76;99.75;98846.05;2952641;80;21051;-82
2021/12/24 20:04:55;;;;;;;7.03;5.10;;;;;;;2.85;99.86;98834.86;2952551;80;21016;-82
2021/12/24 20:08:57;;;;;;;7.85;5.28;;;;;;;2.88;99.88;98866.64;2952758;80;21060;-82
2021/12/24 20:12:59;;;;;;;6.60;4.55;;;;;;;2.93;100.00;98857.45;2952213;80;21020;-81
2021/12/24 20:17:02;;;;;;;8.97;5.67;;;;;;;2.91;99.38;98888.25;2953322;80;21032;-80
2021/12/24 20:21:06;;;;;;;7.50;4.80;;;;;;;2.90;99.48;98880.01;2953289;80;21087;-80
2021/12/24 20:25:09;;;;;;;6.87;5.00;;;;;;;2.87;99.17;98881.55;2953393;80;21653;-80
2021/12/24 20:29:10;;;;;;;11.00;6.10;;;;;;;2.85;99.44;98899.21;2953861;80;21613;-79
2021/12/24 20:33:12;;;;;;;8.55;5.42;;;;;;;2.79;99.20;98889.16;2954594;80;21557;-79
2021/12/24 20:37:14;;;;;;;9.48;6.62;;;;;;;2.80;99.27;98888.20;2973968;80;21069;-79
2021/12/24 20:41:17;;;;;;;6.30;5.45;;;;;;;2.67;99.76;98915.33;2973631;80;21022;-80
2021/12/24 20:45:21;;;;;;;8.18;4.47;;;;;;;2.69;99.95;98925.25;2974140;80;21935;-80
2021/12/24 20:49:22;;;;;;;7.58;6.47;;;;;;;2.67;99.93;98926.33;2973980;80;21003;-78
2021/12/24 20:53:24;;;;;;;6.28;5.55;;;;;;;2.76;100.00;98930.09;2974114;80;21021;-78
2021/12/24 20:57:26;;;;;;;7.10;4.37;;;;;;;2.73;99.45;98919.31;2973556;80;20974;-78
2021/12/24 21:01:28;;;;;;;7.83;6.05;;;;;;;2.66;98.78;98937.29;2973472;80;21022;-78
2021/12/24 21:05:29;;;;;;;7.47;5.33;;;;;;;2.66;98.69;98928.09;2973725;80;20999;-78
2021/12/24 21:09:31;;;;;;;6.58;4.78;;;;;;;2.68;98.06;98941.95;2973942;80;21263;-77
2021/12/24 21:13:33;;;;;;;11.33;6.78;;;;;;;2.65;97.73;98940.86;2973584;80;21022;-77